Station Historical Data
Daily Summary for December 14, 2011 Units:  English    Metric   Both
« Previous Day
Next Day »
Daily Weekly Monthly Yearly Custom
  High: Low: Average:
Temperature: 68.8 °F 47.4 °F 56.7 °F
Dew Point: 54.3 °F 46.0 °F 49.6 °F
Humidity: 96% 55% 79%
Wind Speed: 14.0mph 1.0mph 5.5mph
Wind Gust: 18.0mph - -
Wind- - SE
Pressure: 30.33 in 30.10 in -
Precipitation: 0.00 in    
Historical Graphs
 
 
Tabular Data for December 14, 2011
Time Temperature Dew Point Pressure Wind Wind Speed Wind Gust Humidity Rainfall Rate (Hourly) Conditions
00:00 50.0 °F 48.3 °F 30.33 in ESE 3.0 mph 4.0 mph 94% 0.00 in
00:01 50.0 °F 48.3 °F 30.33 in ESE 2.0 mph 4.0 mph 94% 0.00 in
00:06 50.0 °F 48.3 °F 30.33 in ESE 2.0 mph 2.0 mph 94% 0.00 in
00:11 50.0 °F 48.3 °F 30.33 in ESE 2.0 mph 4.0 mph 94% 0.00 in
00:16 50.0 °F 48.3 °F 30.33 in ESE 3.0 mph 3.0 mph 94% 0.00 in
00:21 49.9 °F 48.2 °F 30.33 in ESE 4.0 mph 4.0 mph 94% 0.00 in
00:26 49.8 °F 48.2 °F 30.33 in ESE 3.0 mph 4.0 mph 94% 0.00 in
00:31 49.7 °F 48.0 °F 30.33 in ESE 4.0 mph 4.0 mph 94% 0.00 in
00:36 49.5 °F 47.8 °F 30.33 in ESE 3.0 mph 4.0 mph 94% 0.00 in
00:41 49.4 °F 47.8 °F 30.33 in SE 2.0 mph 4.0 mph 94% 0.00 in
00:46 49.2 °F 47.5 °F 30.33 in ESE 2.0 mph 3.0 mph 94% 0.00 in
00:51 49.0 °F 47.6 °F 30.33 in ESE 3.0 mph 4.0 mph 95% 0.00 in
00:56 49.1 °F 47.7 °F 30.33 in ESE 4.0 mph 4.0 mph 95% 0.00 in
01:01 49.3 °F 47.9 °F 30.32 in SE 3.0 mph 5.0 mph 95% 0.00 in
01:06 49.3 °F 47.9 °F 30.32 in SE 3.0 mph 4.0 mph 95% 0.00 in
01:11 49.3 °F 47.9 °F 30.32 in ESE 4.0 mph 4.0 mph 95% 0.00 in
01:16 49.2 °F 47.8 °F 30.32 in ESE 3.0 mph 5.0 mph 95% 0.00 in
01:21 49.1 °F 47.7 °F 30.32 in ESE 3.0 mph 4.0 mph 95% 0.00 in
01:26 49.2 °F 47.8 °F 30.32 in ESE 3.0 mph 5.0 mph 95% 0.00 in
01:32 49.3 °F 47.9 °F 30.32 in ESE 5.0 mph 5.0 mph 95% 0.00 in
01:37 49.4 °F 48.0 °F 30.31 in ESE 4.0 mph 5.0 mph 95% 0.00 in
01:42 49.3 °F 47.9 °F 30.31 in ESE 3.0 mph 4.0 mph 95% 0.00 in
01:47 49.4 °F 48.0 °F 30.31 in SE 3.0 mph 4.0 mph 95% 0.00 in
01:52 49.5 °F 48.1 °F 30.30 in ESE 4.0 mph 5.0 mph 95% 0.00 in
01:57 49.5 °F 48.1 °F 30.30 in SE 3.0 mph 5.0 mph 95% 0.00 in
02:02 49.5 °F 48.1 °F 30.30 in ESE 4.0 mph 5.0 mph 95% 0.00 in
02:07 49.6 °F 48.2 °F 30.30 in ESE 4.0 mph 5.0 mph 95% 0.00 in
02:12 49.5 °F 48.1 °F 30.30 in ESE 3.0 mph 4.0 mph 95% 0.00 in
02:17 49.4 °F 48.0 °F 30.30 in ESE 3.0 mph 4.0 mph 95% 0.00 in
02:22 49.3 °F 47.9 °F 30.30 in ESE 3.0 mph 4.0 mph 95% 0.00 in
02:27 49.5 °F 48.1 °F 30.30 in ESE 4.0 mph 4.0 mph 95% 0.00 in
02:32 49.6 °F 48.2 °F 30.30 in ESE 4.0 mph 4.0 mph 95% 0.00 in
02:37 49.7 °F 48.3 °F 30.30 in East 4.0 mph 5.0 mph 95% 0.00 in
02:42 49.8 °F 48.4 °F 30.30 in ESE 4.0 mph 6.0 mph 95% 0.00 in
02:47 49.7 °F 48.3 °F 30.30 in ESE 4.0 mph 5.0 mph 95% 0.00 in
02:52 49.6 °F 48.2 °F 30.30 in ESE 4.0 mph 5.0 mph 95% 0.00 in
02:57 49.5 °F 48.1 °F 30.29 in ESE 5.0 mph 6.0 mph 95% 0.00 in
03:02 49.3 °F 47.9 °F 30.29 in ESE 4.0 mph 5.0 mph 95% 0.00 in
03:07 49.1 °F 47.7 °F 30.29 in ESE 3.0 mph 5.0 mph 95% 0.00 in
03:12 48.9 °F 47.5 °F 30.29 in ESE 5.0 mph 5.0 mph 95% 0.00 in
03:17 49.0 °F 47.6 °F 30.29 in ESE 4.0 mph 5.0 mph 95% 0.00 in
03:22 49.0 °F 47.6 °F 30.29 in East 4.0 mph 6.0 mph 95% 0.00 in
03:27 49.0 °F 47.6 °F 30.29 in ESE 4.0 mph 6.0 mph 95% 0.00 in
03:32 48.9 °F 47.5 °F 30.29 in ESE 4.0 mph 5.0 mph 95% 0.00 in
03:37 48.6 °F 47.2 °F 30.29 in ESE 3.0 mph 4.0 mph 95% 0.00 in
03:42 48.2 °F 46.8 °F 30.29 in ESE 4.0 mph 4.0 mph 95% 0.00 in
03:47 47.9 °F 46.5 °F 30.28 in East 2.0 mph 4.0 mph 95% 0.00 in
03:52 47.6 °F 46.2 °F 30.29 in ESE 2.0 mph 3.0 mph 95% 0.00 in
03:57 47.4 °F 46.0 °F 30.29 in ESE 3.0 mph 4.0 mph 95% 0.00 in
04:02 47.4 °F 46.3 °F 30.29 in ESE 2.0 mph 4.0 mph 96% 0.00 in
04:07 47.5 °F 46.4 °F 30.29 in ESE 2.0 mph 4.0 mph 96% 0.00 in
04:12 47.5 °F 46.4 °F 30.28 in ESE 3.0 mph 4.0 mph 96% 0.00 in
04:17 47.5 °F 46.4 °F 30.28 in ESE 3.0 mph 4.0 mph 96% 0.00 in
04:22 47.6 °F 46.5 °F 30.28 in ESE 4.0 mph 4.0 mph 96% 0.00 in
04:27 48.0 °F 46.9 °F 30.28 in ESE 4.0 mph 4.0 mph 96% 0.00 in
04:33 48.4 °F 47.3 °F 30.28 in ESE 4.0 mph 7.0 mph 96% 0.00 in
04:38 48.6 °F 47.5 °F 30.28 in ESE 4.0 mph 5.0 mph 96% 0.00 in
04:43 48.6 °F 47.5 °F 30.28 in ESE 4.0 mph 5.0 mph 96% 0.00 in
04:48 48.6 °F 47.5 °F 30.29 in East 3.0 mph 5.0 mph 96% 0.00 in
04:53 48.5 °F 47.4 °F 30.28 in ESE 2.0 mph 4.0 mph 96% 0.00 in
04:58 48.2 °F 46.8 °F 30.28 in East 1.0 mph 3.0 mph 95% 0.00 in
05:03 48.2 °F 47.1 °F 30.28 in East 2.0 mph 3.0 mph 96% 0.00 in
05:08 48.1 °F 47.0 °F 30.28 in East 3.0 mph 4.0 mph 96% 0.00 in
05:13 48.3 °F 47.2 °F 30.28 in ESE 2.0 mph 4.0 mph 96% 0.00 in
05:18 48.4 °F 47.3 °F 30.28 in ESE 3.0 mph 3.0 mph 96% 0.00 in
05:23 48.5 °F 47.4 °F 30.28 in ESE 4.0 mph 5.0 mph 96% 0.00 in
05:28 48.5 °F 47.4 °F 30.28 in ESE 4.0 mph 5.0 mph 96% 0.00 in
05:33 48.4 °F 47.3 °F 30.28 in ESE 3.0 mph 4.0 mph 96% 0.00 in
05:38 48.3 °F 47.2 °F 30.28 in ESE 3.0 mph 4.0 mph 96% 0.00 in
05:43 48.2 °F 47.1 °F 30.28 in ESE 3.0 mph 4.0 mph 96% 0.00 in
05:48 48.2 °F 47.1 °F 30.28 in ESE 4.0 mph 4.0 mph 96% 0.00 in
05:53 48.2 °F 47.1 °F 30.28 in ESE 4.0 mph 4.0 mph 96% 0.00 in
05:58 48.1 °F 47.0 °F 30.28 in ESE 4.0 mph 4.0 mph 96% 0.00 in
06:03 48.1 °F 47.0 °F 30.28 in ESE 3.0 mph 4.0 mph 96% 0.00 in
06:08 48.1 °F 47.0 °F 30.29 in ESE 5.0 mph 5.0 mph 96% 0.00 in
06:13 48.2 °F 47.1 °F 30.28 in ESE 4.0 mph 5.0 mph 96% 0.00 in
06:18 48.0 °F 46.9 °F 30.29 in ESE 4.0 mph 4.0 mph 96% 0.00 in
06:23 48.0 °F 46.9 °F 30.29 in ESE 4.0 mph 5.0 mph 96% 0.00 in
06:28 48.0 °F 46.9 °F 30.29 in ESE 4.0 mph 5.0 mph 96% 0.00 in
06:33 47.8 °F 46.7 °F 30.29 in ESE 3.0 mph 4.0 mph 96% 0.00 in
06:38 47.9 °F 46.8 °F 30.29 in ESE 5.0 mph 5.0 mph 96% 0.00 in
06:43 47.9 °F 46.8 °F 30.29 in East 5.0 mph 5.0 mph 96% 0.00 in
06:48 47.9 °F 46.8 °F 30.29 in ESE 6.0 mph 6.0 mph 96% 0.00 in
06:53 47.8 °F 46.7 °F 30.28 in ESE 4.0 mph 6.0 mph 96% 0.00 in
06:58 47.4 °F 46.3 °F 30.28 in ESE 4.0 mph 5.0 mph 96% 0.00 in
07:03 47.4 °F 46.3 °F 30.29 in ESE 3.0 mph 4.0 mph 96% 0.00 in
07:08 47.5 °F 46.4 °F 30.29 in ESE 2.0 mph 5.0 mph 96% 0.00 in
07:14 47.6 °F 46.5 °F 30.29 in SE 2.0 mph 3.0 mph 96% 0.00 in
07:19 47.6 °F 46.5 °F 30.29 in ESE 3.0 mph 3.0 mph 96% 0.00 in
07:24 47.7 °F 46.6 °F 30.29 in ESE 3.0 mph 4.0 mph 96% 0.00 in
07:29 47.9 °F 46.8 °F 30.29 in SE 4.0 mph 6.0 mph 96% 0.00 in
07:34 48.1 °F 47.0 °F 30.29 in ESE 3.0 mph 5.0 mph 96% 0.00 in
07:39 48.3 °F 47.2 °F 30.29 in ESE 5.0 mph 6.0 mph 96% 0.00 in
07:44 48.4 °F 47.3 °F 30.29 in ESE 4.0 mph 5.0 mph 96% 0.00 in
07:49 48.6 °F 47.5 °F 30.29 in SE 4.0 mph 6.0 mph 96% 0.00 in
07:54 48.7 °F 47.6 °F 30.30 in SE 3.0 mph 5.0 mph 96% 0.00 in
07:59 48.7 °F 47.6 °F 30.30 in ESE 4.0 mph 5.0 mph 96% 0.00 in
08:04 48.7 °F 47.6 °F 30.30 in SE 5.0 mph 6.0 mph 96% 0.00 in
08:09 49.0 °F 47.9 °F 30.29 in SE 4.0 mph 8.0 mph 96% 0.00 in
08:14 49.2 °F 47.8 °F 30.29 in SE 5.0 mph 7.0 mph 95% 0.00 in
08:19 49.3 °F 47.9 °F 30.29 in SE 5.0 mph 9.0 mph 95% 0.00 in
08:24 49.5 °F 48.1 °F 30.29 in SE 5.0 mph 7.0 mph 95% 0.00 in
08:29 49.6 °F 48.2 °F 30.29 in SE 6.0 mph 8.0 mph 95% 0.00 in
08:34 49.8 °F 48.4 °F 30.30 in SE 4.0 mph 8.0 mph 95% 0.00 in
08:39 49.8 °F 48.4 °F 30.30 in ESE 5.0 mph 8.0 mph 95% 0.00 in
08:44 49.9 °F 48.5 °F 30.30 in SSE 5.0 mph 7.0 mph 95% 0.00 in
08:49 50.1 °F 48.7 °F 30.30 in SE 5.0 mph 7.0 mph 95% 0.00 in
08:54 50.3 °F 48.6 °F 30.30 in SE 4.0 mph 7.0 mph 94% 0.00 in
08:59 50.7 °F 49.0 °F 30.29 in SSE 6.0 mph 8.0 mph 94% 0.00 in
09:04 51.2 °F 49.5 °F 30.30 in SE 8.0 mph 8.0 mph 94% 0.00 in
09:09 51.7 °F 50.0 °F 30.30 in SSE 6.0 mph 9.0 mph 94% 0.00 in
09:15 52.4 °F 50.7 °F 30.30 in ESE 8.0 mph 9.0 mph 94% 0.00 in
09:20 52.8 °F 50.8 °F 30.30 in SSE 7.0 mph 8.0 mph 93% 0.00 in
09:25 53.4 °F 51.1 °F 30.30 in SSE 7.0 mph 11.0 mph 92% 0.00 in
09:30 54.1 °F 51.8 °F 30.30 in SSE 5.0 mph 11.0 mph 92% 0.00 in
09:35 54.6 °F 52.0 °F 30.30 in ESE 10.0 mph 11.0 mph 91% 0.00 in
09:40 54.9 °F 52.3 °F 30.30 in SSE 7.0 mph 10.0 mph 91% 0.00 in
09:45 55.6 °F 52.7 °F 30.30 in SSE 9.0 mph 12.0 mph 90% 0.00 in
09:50 55.9 °F 52.7 °F 30.30 in SSE 11.0 mph 11.0 mph 89% 0.00 in
09:55 56.3 °F 52.8 °F 30.30 in SSE 7.0 mph 9.0 mph 88% 0.00 in
10:00 56.5 °F 52.4 °F 30.30 in SSE 8.0 mph 13.0 mph 86% 0.00 in
10:05 56.7 °F 52.9 °F 30.30 in SSE 11.0 mph 13.0 mph 87% 0.00 in
10:10 56.9 °F 53.1 °F 30.30 in SSE 6.0 mph 12.0 mph 87% 0.00 in
10:15 57.2 °F 52.7 °F 30.30 in SSE 10.0 mph 13.0 mph 85% 0.00 in
10:20 57.2 °F 52.7 °F 30.31 in SSE 10.0 mph 11.0 mph 85% 0.00 in
10:25 57.5 °F 52.7 °F 30.31 in South 5.0 mph 11.0 mph 84% 0.00 in
10:30 58.0 °F 53.2 °F 30.30 in SSE 13.0 mph 13.0 mph 84% 0.00 in
10:36 58.7 °F 53.2 °F 30.30 in SSE 10.0 mph 12.0 mph 82% 0.00 in
10:41 59.1 °F 53.3 °F 30.30 in South 5.0 mph 12.0 mph 81% 0.00 in
10:46 59.5 °F 53.3 °F 30.30 in South 12.0 mph 13.0 mph 80% 0.00 in
10:51 59.7 °F 53.2 °F 30.29 in SSE 9.0 mph 18.0 mph 79% 0.00 in
10:56 60.2 °F 53.0 °F 30.29 in SSW 8.0 mph 13.0 mph 77% 0.00 in
11:01 60.3 °F 53.1 °F 30.30 in SSE 5.0 mph 15.0 mph 77% 0.00 in
11:06 60.7 °F 53.1 °F 30.29 in South 11.0 mph 12.0 mph 76% 0.00 in
11:11 60.9 °F 53.3 °F 30.29 in SSW 13.0 mph 16.0 mph 76% 0.00 in
11:16 60.9 °F 52.9 °F 30.29 in South 10.0 mph 13.0 mph 75% 0.00 in
11:21 61.1 °F 52.8 °F 30.28 in SSW 11.0 mph 18.0 mph 74% 0.00 in
11:26 61.2 °F 52.5 °F 30.28 in South 13.0 mph 17.0 mph 73% 0.00 in
11:31 61.2 °F 52.5 °F 30.28 in SSW 6.0 mph 14.0 mph 73% 0.00 in
11:36 61.3 °F 52.6 °F 30.28 in SSE 7.0 mph 12.0 mph 73% 0.00 in
11:41 61.5 °F 52.8 °F 30.28 in South 9.0 mph 13.0 mph 73% 0.00 in
11:46 61.4 °F 52.3 °F 30.28 in SSW 11.0 mph 15.0 mph 72% 0.00 in
11:51 61.2 °F 52.5 °F 30.27 in SSE 5.0 mph 16.0 mph 73% 0.00 in
11:56 61.6 °F 52.9 °F 30.27 in South 7.0 mph 12.0 mph 73% 0.00 in
12:01 62.2 °F 53.1 °F 30.27 in SSE 8.0 mph 11.0 mph 72% 0.00 in
12:06 62.4 °F 52.9 °F 30.27 in SE 5.0 mph 12.0 mph 71% 0.00 in
12:11 62.6 °F 53.1 °F 30.26 in SSW 8.0 mph 10.0 mph 71% 0.00 in
12:16 62.8 °F 53.3 °F 30.26 in SSE 10.0 mph 12.0 mph 71% 0.00 in
12:21 63.5 °F 53.5 °F 30.26 in South 8.0 mph 10.0 mph 70% 0.00 in
12:26 63.6 °F 53.3 °F 30.25 in SSW 5.0 mph 15.0 mph 69% 0.00 in
12:31 63.5 °F 53.2 °F 30.25 in South 6.0 mph 12.0 mph 69% 0.00 in
12:36 63.4 °F 53.1 °F 30.25 in South 6.0 mph 13.0 mph 69% 0.00 in
12:41 63.6 °F 53.7 °F 30.24 in SSW 5.0 mph 12.0 mph 70% 0.00 in
12:46 63.9 °F 53.1 °F 30.24 in SSE 9.0 mph 12.0 mph 68% 0.00 in
12:51 64.3 °F 53.5 °F 30.24 in South 12.0 mph 12.0 mph 68% 0.00 in
12:56 64.6 °F 53.4 °F 30.23 in SSE 7.0 mph 11.0 mph 67% 0.00 in
13:01 65.0 °F 53.8 °F 30.23 in South 11.0 mph 14.0 mph 67% 0.00 in
13:06 65.5 °F 54.3 °F 30.22 in SSE 8.0 mph 11.0 mph 67% 0.00 in
13:11 65.6 °F 53.5 °F 30.22 in South 11.0 mph 17.0 mph 65% 0.00 in
13:16 65.8 °F 53.3 °F 30.22 in SSW 12.0 mph 12.0 mph 64% 0.00 in
13:21 65.9 °F 53.4 °F 30.22 in South 7.0 mph 12.0 mph 64% 0.00 in
13:26 66.2 °F 52.8 °F 30.22 in SSW 7.0 mph 16.0 mph 62% 0.00 in
13:31 66.1 °F 52.7 °F 30.21 in SSW 7.0 mph 14.0 mph 62% 0.00 in
13:37 66.3 °F 52.5 °F 30.20 in SSW 10.0 mph 13.0 mph 61% 0.00 in
13:42 66.5 °F 52.7 °F 30.20 in South 8.0 mph 11.0 mph 61% 0.00 in
13:47 66.5 °F 52.2 °F 30.20 in South 8.0 mph 15.0 mph 60% 0.00 in
13:52 66.5 °F 52.7 °F 30.20 in SSW 7.0 mph 11.0 mph 61% 0.00 in
13:57 66.7 °F 52.8 °F 30.20 in South 9.0 mph 13.0 mph 61% 0.00 in
14:02 66.8 °F 52.5 °F 30.20 in SSW 7.0 mph 14.0 mph 60% 0.00 in
14:07 67.0 °F 52.7 °F 30.19 in SSW 10.0 mph 13.0 mph 60% 0.00 in
14:12 67.4 °F 53.0 °F 30.19 in South 5.0 mph 14.0 mph 60% 0.00 in
14:17 67.6 °F 52.8 °F 30.19 in SSE 10.0 mph 12.0 mph 59% 0.00 in
14:22 67.6 °F 52.8 °F 30.19 in SSW 4.0 mph 8.0 mph 59% 0.00 in
14:27 67.9 °F 52.6 °F 30.18 in SW 7.0 mph 14.0 mph 58% 0.00 in
14:32 67.6 °F 51.8 °F 30.18 in SSW 9.0 mph 14.0 mph 57% 0.00 in
14:37 67.6 °F 52.3 °F 30.18 in SSW 8.0 mph 15.0 mph 58% 0.00 in
14:42 67.6 °F 52.3 °F 30.18 in SSE 8.0 mph 13.0 mph 58% 0.00 in
14:47 67.8 °F 53.0 °F 30.17 in SSE 6.0 mph 11.0 mph 59% 0.00 in
14:52 67.9 °F 52.6 °F 30.17 in SE 8.0 mph 13.0 mph 58% 0.00 in
14:57 68.1 °F 52.8 °F 30.17 in SSE 11.0 mph 13.0 mph 58% 0.00 in
15:02 68.4 °F 53.1 °F 30.17 in South 6.0 mph 10.0 mph 58% 0.00 in
15:07 68.7 °F 52.9 °F 30.16 in SSW 6.0 mph 11.0 mph 57% 0.00 in
15:12 68.7 °F 52.4 °F 30.16 in SE 8.0 mph 12.0 mph 56% 0.00 in
15:17 68.7 °F 52.4 °F 30.16 in SSE 10.0 mph 13.0 mph 56% 0.00 in
15:23 68.8 °F 52.5 °F 30.16 in SSE 9.0 mph 13.0 mph 56% 0.00 in
15:28 68.6 °F 52.3 °F 30.15 in SE 7.0 mph 12.0 mph 56% 0.00 in
15:33 68.5 °F 52.7 °F 30.15 in SSE 9.0 mph 15.0 mph 57% 0.00 in
15:38 68.5 °F 52.7 °F 30.15 in SSE 10.0 mph 10.0 mph 57% 0.00 in
15:43 68.6 °F 53.2 °F 30.15 in SSE 8.0 mph 10.0 mph 58% 0.00 in
15:48 68.5 °F 52.7 °F 30.15 in SSW 6.0 mph 10.0 mph 57% 0.00 in
15:53 68.3 °F 53.0 °F 30.15 in SSE 9.0 mph 13.0 mph 58% 0.00 in
15:58 68.3 °F 52.5 °F 30.15 in SSW 5.0 mph 12.0 mph 57% 0.00 in
16:03 68.6 °F 52.3 °F 30.15 in SSE 9.0 mph 15.0 mph 56% 0.00 in
16:08 68.7 °F 52.4 °F 30.15 in South 6.0 mph 15.0 mph 56% 0.00 in
16:13 68.7 °F 51.9 °F 30.15 in SSW 9.0 mph 13.0 mph 55% 0.00 in
16:18 68.5 °F 51.7 °F 30.15 in South 7.0 mph 14.0 mph 55% 0.00 in
16:24 68.4 °F 52.1 °F 30.15 in South 7.0 mph 9.0 mph 56% 0.00 in
16:29 68.3 °F 52.0 °F 30.15 in SE 6.0 mph 14.0 mph 56% 0.00 in
16:34 68.1 °F 51.8 °F 30.15 in South 8.0 mph 12.0 mph 56% 0.00 in
16:39 67.7 °F 51.5 °F 30.15 in South 7.0 mph 12.0 mph 56% 0.00 in
16:44 67.4 °F 51.7 °F 30.15 in ESE 9.0 mph 10.0 mph 57% 0.00 in
16:49 66.9 °F 51.2 °F 30.15 in SSE 10.0 mph 14.0 mph 57% 0.00 in
16:54 66.6 °F 51.4 °F 30.14 in South 8.0 mph 10.0 mph 58% 0.00 in
16:59 66.3 °F 51.1 °F 30.14 in South 6.0 mph 11.0 mph 58% 0.00 in
17:04 66.0 °F 51.3 °F 30.14 in SSE 6.0 mph 9.0 mph 59% 0.00 in
17:09 65.2 °F 51.0 °F 30.14 in South 9.0 mph 9.0 mph 60% 0.00 in
17:14 64.8 °F 51.0 °F 30.14 in SE 14.0 mph 14.0 mph 61% 0.00 in
17:19 64.6 °F 50.9 °F 30.15 in SSE 7.0 mph 9.0 mph 61% 0.00 in
17:24 64.3 °F 50.6 °F 30.15 in South 3.0 mph 7.0 mph 61% 0.00 in
17:29 63.9 °F 50.6 °F 30.15 in SSE 5.0 mph 7.0 mph 62% 0.00 in
17:34 63.3 °F 50.5 °F 30.14 in SE 5.0 mph 7.0 mph 63% 0.00 in
17:39 63.3 °F 50.5 °F 30.14 in SE 6.0 mph 9.0 mph 63% 0.00 in
17:44 63.0 °F 50.2 °F 30.14 in SE 8.0 mph 9.0 mph 63% 0.00 in
17:49 62.8 °F 50.0 °F 30.14 in South 6.0 mph 10.0 mph 63% 0.00 in
17:54 62.6 °F 49.8 °F 30.14 in SSE 4.0 mph 9.0 mph 63% 0.00 in
17:59 62.2 °F 49.9 °F 30.14 in SSE 6.0 mph 6.0 mph 64% 0.00 in
18:04 61.9 °F 49.6 °F 30.14 in SE 7.0 mph 9.0 mph 64% 0.00 in
18:09 61.7 °F 49.8 °F 30.14 in SE 4.0 mph 9.0 mph 65% 0.00 in
18:15 61.4 °F 49.5 °F 30.14 in SE 4.0 mph 7.0 mph 65% 0.00 in
18:20 61.3 °F 49.9 °F 30.14 in SSE 4.0 mph 9.0 mph 66% 0.00 in
18:25 61.3 °F 49.9 °F 30.14 in SE 4.0 mph 9.0 mph 66% 0.00 in
18:30 60.9 °F 49.5 °F 30.14 in SSE 9.0 mph 9.0 mph 66% 0.00 in
18:35 60.8 °F 49.4 °F 30.14 in SSE 4.0 mph 8.0 mph 66% 0.00 in
18:40 60.6 °F 49.2 °F 30.14 in SE 6.0 mph 7.0 mph 66% 0.00 in
18:45 60.4 °F 49.4 °F 30.13 in SE 3.0 mph 7.0 mph 67% 0.00 in
18:50 60.5 °F 49.1 °F 30.13 in SSE 6.0 mph 8.0 mph 66% 0.00 in
18:55 60.5 °F 49.1 °F 30.13 in ESE 7.0 mph 8.0 mph 66% 0.00 in
19:00 60.3 °F 48.9 °F 30.13 in ESE 5.0 mph 9.0 mph 66% 0.00 in
19:05 60.2 °F 48.8 °F 30.13 in SE 3.0 mph 6.0 mph 66% 0.00 in
19:10 60.0 °F 49.0 °F 30.13 in SSE 3.0 mph 6.0 mph 67% 0.00 in
19:15 59.9 °F 48.9 °F 30.13 in SE 4.0 mph 5.0 mph 67% 0.00 in
19:20 59.8 °F 48.8 °F 30.13 in SE 4.0 mph 8.0 mph 67% 0.00 in
19:25 59.6 °F 48.6 °F 30.13 in SE 4.0 mph 6.0 mph 67% 0.00 in
19:30 59.4 °F 48.8 °F 30.13 in SE 3.0 mph 6.0 mph 68% 0.00 in
19:35 59.5 °F 48.9 °F 30.13 in SE 5.0 mph 8.0 mph 68% 0.00 in
19:40 59.6 °F 49.0 °F 30.13 in ESE 6.0 mph 7.0 mph 68% 0.00 in
19:45 59.7 °F 48.7 °F 30.12 in SE 5.0 mph 6.0 mph 67% 0.00 in
19:50 59.7 °F 48.7 °F 30.13 in SE 5.0 mph 8.0 mph 67% 0.00 in
19:55 59.8 °F 48.8 °F 30.13 in SE 5.0 mph 9.0 mph 67% 0.00 in
20:00 59.7 °F 48.7 °F 30.13 in SSE 5.0 mph 9.0 mph 67% 0.00 in
20:05 59.7 °F 48.7 °F 30.13 in SSE 7.0 mph 9.0 mph 67% 0.00 in
20:11 59.5 °F 48.5 °F 30.13 in SSE 5.0 mph 7.0 mph 67% 0.00 in
20:16 59.2 °F 48.7 °F 30.13 in SE 3.0 mph 7.0 mph 68% 0.00 in
20:21 58.9 °F 48.4 °F 30.13 in SSE 5.0 mph 5.0 mph 68% 0.00 in
20:26 59.0 °F 48.5 °F 30.12 in SE 4.0 mph 7.0 mph 68% 0.00 in
20:31 59.1 °F 48.2 °F 30.12 in SSE 6.0 mph 6.0 mph 67% 0.00 in
20:36 59.0 °F 48.1 °F 30.12 in SSE 4.0 mph 6.0 mph 67% 0.00 in
20:41 58.9 °F 48.4 °F 30.12 in SSE 3.0 mph 6.0 mph 68% 0.00 in
20:46 58.4 °F 48.3 °F 30.12 in SE 3.0 mph 5.0 mph 69% 0.00 in
20:51 57.8 °F 48.1 °F 30.12 in SE 4.0 mph 5.0 mph 70% 0.00 in
20:56 57.5 °F 47.8 °F 30.12 in SE 4.0 mph 5.0 mph 70% 0.00 in
21:01 57.8 °F 48.1 °F 30.12 in SE 3.0 mph 6.0 mph 70% 0.00 in
21:06 58.2 °F 48.1 °F 30.12 in SSE 5.0 mph 7.0 mph 69% 0.00 in
21:11 58.3 °F 48.2 °F 30.11 in SE 4.0 mph 8.0 mph 69% 0.00 in
21:16 58.4 °F 48.3 °F 30.12 in SE 4.0 mph 6.0 mph 69% 0.00 in
21:21 58.4 °F 48.3 °F 30.12 in SE 4.0 mph 7.0 mph 69% 0.00 in
21:26 58.4 °F 48.3 °F 30.12 in SE 4.0 mph 6.0 mph 69% 0.00 in
21:31 58.6 °F 48.5 °F 30.11 in SE 5.0 mph 7.0 mph 69% 0.00 in
21:36 58.7 °F 48.2 °F 30.11 in SE 5.0 mph 8.0 mph 68% 0.00 in
21:41 58.7 °F 48.6 °F 30.11 in SE 4.0 mph 8.0 mph 69% 0.00 in
21:46 58.7 °F 48.2 °F 30.11 in SE 5.0 mph 7.0 mph 68% 0.00 in
21:51 58.5 °F 48.4 °F 30.10 in SE 7.0 mph 7.0 mph 69% 0.00 in
21:56 58.3 °F 48.2 °F 30.10 in SSE 4.0 mph 7.0 mph 69% 0.00 in
22:01 58.2 °F 48.1 °F 30.10 in SSE 5.0 mph 7.0 mph 69% 0.00 in
22:06 58.1 °F 48.0 °F 30.10 in SE 4.0 mph 7.0 mph 69% 0.00 in
22:11 57.9 °F 48.2 °F 30.10 in SSE 5.0 mph 7.0 mph 70% 0.00 in
22:16 57.8 °F 48.1 °F 30.10 in SE 6.0 mph 9.0 mph 70% 0.00 in
22:21 57.8 °F 48.1 °F 30.10 in SE 7.0 mph 9.0 mph 70% 0.00 in
22:26 57.8 °F 48.1 °F 30.10 in SE 5.0 mph 9.0 mph 70% 0.00 in
22:31 57.7 °F 48.0 °F 30.10 in SSE 4.0 mph 8.0 mph 70% 0.00 in
22:36 57.5 °F 48.2 °F 30.10 in SE 5.0 mph 7.0 mph 71% 0.00 in
22:41 57.5 °F 48.2 °F 30.10 in SE 6.0 mph 8.0 mph 71% 0.00 in
22:46 57.4 °F 48.1 °F 30.10 in SE 5.0 mph 8.0 mph 71% 0.00 in
22:51 57.6 °F 48.3 °F 30.10 in SE 5.0 mph 9.0 mph 71% 0.00 in
22:57 57.5 °F 48.2 °F 30.10 in ESE 6.0 mph 10.0 mph 71% 0.00 in
23:02 57.3 °F 48.4 °F 30.10 in SSE 6.0 mph 7.0 mph 72% 0.00 in
23:07 57.2 °F 48.3 °F 30.10 in SE 8.0 mph 8.0 mph 72% 0.00 in
23:12 57.0 °F 48.1 °F 30.10 in SSE 4.0 mph 6.0 mph 72% 0.00 in
23:17 56.9 °F 48.3 °F 30.10 in SSE 4.0 mph 6.0 mph 73% 0.00 in
23:22 56.8 °F 48.2 °F 30.11 in SSE 3.0 mph 7.0 mph 73% 0.00 in
23:27 56.5 °F 48.0 °F 30.11 in SE 3.0 mph 4.0 mph 73% 0.00 in
23:32 56.1 °F 47.9 °F 30.11 in SSE 4.0 mph 5.0 mph 74% 0.00 in
23:37 55.9 °F 47.7 °F 30.12 in SSE 3.0 mph 4.0 mph 74% 0.00 in
23:42 55.9 °F 48.1 °F 30.12 in SE 2.0 mph 5.0 mph 75% 0.00 in
23:47 55.8 °F 48.4 °F 30.12 in SE 3.0 mph 3.0 mph 76% 0.00 in
23:52 56.3 °F 48.8 °F 30.12 in SSE 4.0 mph 6.0 mph 76% 0.00 in
23:57 56.8 °F 49.0 °F 30.12 in SSE 6.0 mph 7.0 mph 75% 0.00 in
Compliments of Weather Underground